KHYR/HYR METAR and TAF weather

Enter ICAO airport designator
Station Type Date Time Source
KHYR METAR 2021/02/27 09:53 UTC NOAA

KHYR 270953Z AUTO 19003KT 9SM CLR M03/M06 A2968 RMK AO2 SLP065 T10281056


Station Type Date Time Source
KHYR Decoded METAR 2021/02/27 09:53 UTC NOAA

HAYWARD MUNICIPAL AIRPORT, WI, United States (KHYR) 46-01N 91-27W 370M
Feb 27, 2021 - 04:53 AM EST / 2021.02.27 0953 UTC
Wind: from the S (190 degrees) at 3 MPH (3 KT):0
Visibility: 9 mile(s):0
Sky conditions: clear
Temperature: 27.0 F (-2.8 C)
Dew Point: 21.9 F (-5.6 C)
Relative Humidity: 81%
Pressure (altimeter): 29.68 in. Hg (1005 hPa)
ob: KHYR 270953Z AUTO 19003KT 9SM CLR M03/M06 A2968 RMK AO2 SLP065 T10281056
cycle: 10

Station Type Date Time Source
KHYR TAF 2021/02/27 06:40 UTC NOAA

TAF KHYR 270538Z 2706/2806 19008KT P6SM BKN100
FM271500 VRB03KT P6SM BKN007
FM271800 VRB03KT P6SM BKN011
FM272100 19004KT P6SM BKN040
FM280200 00000KT P6SM BKN025

Example: see airport list